createdAt,value
2017-05-21T00:02:03.217Z,1.08
2017-05-21T00:04:32.098Z,3.44
2017-05-21T00:07:01.018Z,0.96
2017-05-21T00:09:29.898Z,0.80
2017-05-21T00:11:58.784Z,0.94
2017-05-21T00:14:27.709Z,1.24
2017-05-21T00:16:56.600Z,1.10
2017-05-21T00:19:25.486Z,1.22
2017-05-21T00:21:54.400Z,1.08
2017-05-21T00:24:23.286Z,1.48
2017-05-21T00:26:51.401Z,1.84
2017-05-21T00:29:20.327Z,1.50
2017-05-21T00:31:49.213Z,1.70
2017-05-21T00:34:18.097Z,1.60
2017-05-21T00:36:47.017Z,1.58
2017-05-21T00:39:15.907Z,1.28
2017-05-21T00:41:44.817Z,4.76
2017-05-21T00:44:13.736Z,1.74
2017-05-21T00:46:42.620Z,3.36
2017-05-21T00:49:11.510Z,1.20
2017-05-21T00:51:40.428Z,2.32
2017-05-21T00:54:09.312Z,1.24
2017-05-21T00:56:38.204Z,1.46
2017-05-21T00:59:07.120Z,1.20
2017-05-21T01:01:36.006Z,2.84
2017-05-21T01:04:04.890Z,1.48
2017-05-21T01:06:33.817Z,1.56
2017-05-21T01:09:02.701Z,1.78
2017-05-21T01:11:31.589Z,1.06
2017-05-21T01:13:59.842Z,0.98
2017-05-21T01:16:28.721Z,5.66
2017-05-21T01:18:57.613Z,1.20
2017-05-21T01:21:26.528Z,0.98
2017-05-21T01:23:55.414Z,1.40
2017-05-21T01:26:24.289Z,2.94
2017-05-21T01:28:52.440Z,2.02
2017-05-21T01:31:21.325Z,1.42
2017-05-21T01:33:50.214Z,1.30
2017-05-21T01:36:19.142Z,2.30
2017-05-21T01:38:48.049Z,2.82
2017-05-21T01:41:16.940Z,2.08
2017-05-21T01:43:45.860Z,3.60
2017-05-21T01:46:14.747Z,4.62
2017-05-21T01:48:43.638Z,2.22
2017-05-21T01:51:12.568Z,2.12
2017-05-21T01:53:41.465Z,1.58
2017-05-21T01:56:10.354Z,2.02
2017-05-21T01:58:39.271Z,2.60
2017-05-21T02:01:08.157Z,1.68
2017-05-21T02:03:37.044Z,1.62
2017-05-21T02:06:05.970Z,2.74
2017-05-21T02:08:34.861Z,1.70
2017-05-21T02:11:03.749Z,1.92
2017-05-21T02:13:32.767Z,2.30
2017-05-21T02:16:01.669Z,2.16
2017-05-21T02:18:30.553Z,2.48
2017-05-21T02:20:59.470Z,3.22
2017-05-21T02:23:28.567Z,3.42
2017-05-21T02:25:57.448Z,2.16
2017-05-21T02:28:26.366Z,1.80
2017-05-21T02:30:55.258Z,1.72
2017-05-21T02:33:24.144Z,1.58
2017-05-21T02:35:53.070Z,1.98
2017-05-21T02:38:21.963Z,3.10
2017-05-21T02:40:50.849Z,1.92
2017-05-21T02:43:19.860Z,3.20
2017-05-21T02:45:48.749Z,1.68
2017-05-21T02:48:17.633Z,2.28
2017-05-21T02:50:46.549Z,1.70
2017-05-21T02:53:15.441Z,2.08
2017-05-21T02:55:44.329Z,1.74
2017-05-21T02:58:13.461Z,1.76
2017-05-21T03:00:42.345Z,1.40
2017-05-21T03:03:11.239Z,1.68
2017-05-21T03:05:40.231Z,1.38
2017-05-21T03:08:09.125Z,1.42
2017-05-21T03:10:38.009Z,1.16
2017-05-21T03:13:06.932Z,2.12
2017-05-21T03:15:35.821Z,1.60
2017-05-21T03:18:04.714Z,2.72
2017-05-21T03:20:33.647Z,1.52
2017-05-21T03:23:02.537Z,1.52
2017-05-21T03:25:31.413Z,1.54
2017-05-21T03:28:00.342Z,0.88
2017-05-21T03:30:29.220Z,1.10
2017-05-21T03:32:58.109Z,1.40
2017-05-21T03:35:27.026Z,1.04
2017-05-21T03:37:55.917Z,3.72
2017-05-21T03:40:24.803Z,1.36
2017-05-21T03:42:53.742Z,1.22
2017-05-21T03:45:22.630Z,1.40
2017-05-21T03:47:51.509Z,1.34
2017-05-21T03:50:20.433Z,1.54
2017-05-21T03:52:49.313Z,1.06
2017-05-21T03:55:18.205Z,1.10
2017-05-21T03:57:47.130Z,1.46
2017-05-21T04:00:16.017Z,1.30
2017-05-21T04:02:44.905Z,0.84
2017-05-21T04:05:14.182Z,1.12
2017-05-21T04:07:43.065Z,2.78
2017-05-21T04:10:11.956Z,1.76
2017-05-21T04:12:40.897Z,1.06
2017-05-21T04:15:09.785Z,1.10
2017-05-21T04:17:38.680Z,0.90
2017-05-21T04:20:07.722Z,1.16
2017-05-21T04:22:36.609Z,1.20
2017-05-21T04:25:05.501Z,1.16
2017-05-21T04:27:34.417Z,1.42
2017-05-21T04:30:03.300Z,3.18
2017-05-21T04:32:32.187Z,0.80
2017-05-21T04:35:01.120Z,0.80
2017-05-21T04:37:30.008Z,1.22
2017-05-21T04:39:58.893Z,0.92
2017-05-21T04:42:27.925Z,1.06
2017-05-21T04:44:56.815Z,1.10
2017-05-21T04:47:25.698Z,0.68
2017-05-21T04:49:54.897Z,0.80
2017-05-21T04:52:23.782Z,1.26
2017-05-21T04:54:52.671Z,1.02
2017-05-21T04:57:21.601Z,0.90
2017-05-21T04:59:50.503Z,0.82
2017-05-21T05:02:19.390Z,1.88
2017-05-21T05:04:48.405Z,1.48
2017-05-21T05:07:17.296Z,1.30
2017-05-21T05:09:46.196Z,2.22
2017-05-21T05:12:15.134Z,0.60
2017-05-21T05:14:44.026Z,0.72
2017-05-21T05:17:12.912Z,0.60
2017-05-21T05:19:41.928Z,0.78
2017-05-21T05:22:10.813Z,0.60
2017-05-21T05:24:39.696Z,0.70
2017-05-21T05:27:08.824Z,1.48
2017-05-21T05:29:37.711Z,1.28
2017-05-21T05:32:06.595Z,1.80
2017-05-21T05:34:35.541Z,0.70
2017-05-21T05:37:04.434Z,0.76
2017-05-21T05:39:33.347Z,1.26
2017-05-21T05:42:02.289Z,0.80
2017-05-21T05:44:31.182Z,1.00
2017-05-21T05:47:00.069Z,1.14
2017-05-21T05:49:29.004Z,1.42
2017-05-21T05:51:57.889Z,1.40
2017-05-21T05:54:27.203Z,0.72
2017-05-21T05:56:56.120Z,1.84
2017-05-21T05:59:25.016Z,1.00
2017-05-21T06:01:53.929Z,1.04
2017-05-21T06:04:22.852Z,0.74
2017-05-21T06:06:51.749Z,0.70
2017-05-21T06:09:20.680Z,0.62
2017-05-21T06:11:49.602Z,0.88
2017-05-21T06:14:18.493Z,0.80
2017-05-21T06:16:47.382Z,0.70
2017-05-21T06:19:15.545Z,0.70
2017-05-21T06:21:44.433Z,0.82
2017-05-21T06:24:13.321Z,3.16
2017-05-21T06:26:42.239Z,1.08
2017-05-21T06:29:11.122Z,1.88
2017-05-21T06:31:40.017Z,1.28
2017-05-21T06:34:08.936Z,1.00
2017-05-21T06:36:37.813Z,1.12
2017-05-21T06:39:06.696Z,0.66
2017-05-21T06:41:35.630Z,0.70
2017-05-21T06:44:04.512Z,0.98
2017-05-21T06:46:33.397Z,0.78
2017-05-21T06:49:02.321Z,0.92
2017-05-21T06:51:31.214Z,3.26
2017-05-21T06:54:00.102Z,1.98
2017-05-21T06:56:29.058Z,0.66
2017-05-21T06:58:57.934Z,2.00
2017-05-21T07:01:26.842Z,1.18
2017-05-21T07:03:55.795Z,0.80
2017-05-21T07:06:24.690Z,1.42
2017-05-21T07:08:52.803Z,0.70
2017-05-21T07:11:21.732Z,1.22
2017-05-21T07:13:50.618Z,0.82
2017-05-21T07:16:19.552Z,1.10
2017-05-21T07:18:48.697Z,1.00
2017-05-21T07:21:17.578Z,1.20
2017-05-21T07:23:46.466Z,0.88
2017-05-21T07:26:15.390Z,1.08
2017-05-21T07:28:44.285Z,1.16
2017-05-21T07:31:13.174Z,0.94
2017-05-21T07:33:42.118Z,1.28
2017-05-21T07:36:11.016Z,1.96
2017-05-21T07:38:39.908Z,0.94
2017-05-21T07:41:08.834Z,1.14
2017-05-21T07:43:37.737Z,1.10
2017-05-21T07:46:06.624Z,0.88
2017-05-21T07:48:35.554Z,1.28
2017-05-21T07:51:04.443Z,1.04
2017-05-21T07:53:33.321Z,1.86
2017-05-21T07:56:02.245Z,1.22
2017-05-21T07:58:31.129Z,0.94
2017-05-21T08:01:00.017Z,1.14
2017-05-21T08:03:28.933Z,0.90
2017-05-21T08:05:57.820Z,1.06
2017-05-21T08:08:26.709Z,1.84
2017-05-21T08:10:55.629Z,1.74
2017-05-21T08:13:24.507Z,1.28
2017-05-21T08:15:53.398Z,1.00
2017-05-21T08:18:22.326Z,1.20
2017-05-21T08:20:51.221Z,1.30
2017-05-21T08:23:20.109Z,0.82
2017-05-21T08:25:49.036Z,1.10
2017-05-21T08:28:17.932Z,1.60
2017-05-21T08:30:46.817Z,0.86
2017-05-21T08:33:15.762Z,4.06
2017-05-21T08:35:44.637Z,0.98
2017-05-21T08:38:13.525Z,1.08
2017-05-21T08:40:42.449Z,0.82
2017-05-21T08:43:11.344Z,1.22
2017-05-21T08:45:40.246Z,1.46
2017-05-21T08:48:09.166Z,1.84
2017-05-21T08:50:38.049Z,1.22
2017-05-21T08:53:07.456Z,1.62
2017-05-21T08:55:38.957Z,1.30
2017-05-21T08:58:08.352Z,1.58
2017-05-21T09:00:39.756Z,1.36
2017-05-21T09:03:09.158Z,1.38
2017-05-21T09:05:39.577Z,1.70
2017-05-21T09:08:08.987Z,1.50
2017-05-21T09:10:38.407Z,1.60
2017-05-21T09:13:08.693Z,1.14
2017-05-21T09:15:38.114Z,1.22
2017-05-21T09:18:07.518Z,1.36
2017-05-21T09:20:36.445Z,2.04
2017-05-21T09:23:05.331Z,1.16
2017-05-21T09:25:34.215Z,1.74
2017-05-21T09:28:03.137Z,1.90
2017-05-21T09:30:32.021Z,1.80
2017-05-21T09:33:00.913Z,1.66
2017-05-21T09:35:29.837Z,1.66
2017-05-21T09:37:58.717Z,1.82
2017-05-21T09:40:27.603Z,1.68
2017-05-21T09:42:56.533Z,1.76
2017-05-21T09:45:25.409Z,1.90
2017-05-21T09:47:54.295Z,1.54
2017-05-21T09:50:23.305Z,1.68
2017-05-21T09:52:52.220Z,1.40
2017-05-21T09:55:21.110Z,1.38
2017-05-21T09:57:50.129Z,1.84
2017-05-21T10:00:19.013Z,1.66
2017-05-21T10:02:47.903Z,1.96
2017-05-21T10:05:16.925Z,2.40
2017-05-21T10:07:45.809Z,1.20
2017-05-21T10:10:14.692Z,1.42
2017-05-21T10:12:43.710Z,1.62
2017-05-21T10:15:12.593Z,1.44
2017-05-21T10:17:41.479Z,1.74
2017-05-21T10:20:10.407Z,2.02
2017-05-21T10:22:39.293Z,1.58
2017-05-21T10:25:08.174Z,1.26
2017-05-21T10:27:37.093Z,1.56
2017-05-21T10:30:05.978Z,2.38
2017-05-21T10:32:34.861Z,1.16
2017-05-21T10:35:03.894Z,2.52
2017-05-21T10:37:32.772Z,5.60
2017-05-21T10:40:01.666Z,2.52
2017-05-21T10:42:30.594Z,1.32
2017-05-21T10:44:59.473Z,1.60
2017-05-21T10:47:28.363Z,1.30
2017-05-21T10:49:57.276Z,2.98
2017-05-21T10:52:26.169Z,2.74
2017-05-21T10:54:55.066Z,3.42
2017-05-21T10:57:24.074Z,1.88
2017-05-21T10:59:52.957Z,1.40
2017-05-21T11:02:21.845Z,1.40
2017-05-21T11:04:50.776Z,1.72
2017-05-21T11:07:19.690Z,1.66
2017-05-21T11:09:48.578Z,2.30
2017-05-21T11:12:17.498Z,1.62
2017-05-21T11:14:46.390Z,2.40
2017-05-21T11:17:15.277Z,3.02
2017-05-21T11:19:44.193Z,3.24
2017-05-21T11:22:13.081Z,2.22
2017-05-21T11:24:41.964Z,1.74
2017-05-21T11:27:10.880Z,1.60
2017-05-21T11:29:39.764Z,2.28
2017-05-21T11:32:08.654Z,1.50
2017-05-21T11:34:37.569Z,2.26
2017-05-21T11:37:06.461Z,1.98
2017-05-21T11:39:35.345Z,1.70
2017-05-21T11:42:04.589Z,2.26
2017-05-21T11:44:33.581Z,3.04
2017-05-21T11:47:02.509Z,1.80
2017-05-21T11:49:31.386Z,1.82
2017-05-21T11:52:00.267Z,2.26
2017-05-21T11:54:29.157Z,2.02
2017-05-21T11:56:58.074Z,2.48
2017-05-21T11:59:26.958Z,2.30
2017-05-21T12:01:55.845Z,2.14
2017-05-21T12:04:24.770Z,2.46
2017-05-21T12:06:53.664Z,2.20
2017-05-21T12:09:22.541Z,2.12
2017-05-21T12:11:51.556Z,2.42
2017-05-21T12:14:20.439Z,2.94
2017-05-21T12:16:49.322Z,2.82
2017-05-21T12:19:18.246Z,2.36
2017-05-21T12:21:47.129Z,2.72
2017-05-21T12:24:16.019Z,3.28
2017-05-21T12:26:44.942Z,2.54
2017-05-21T12:29:14.285Z,2.84
2017-05-21T12:31:43.168Z,2.90
2017-05-21T12:34:12.521Z,2.80
2017-05-21T12:36:41.412Z,2.68
2017-05-21T12:39:10.298Z,2.78
2017-05-21T12:41:39.305Z,3.04
2017-05-21T12:44:08.193Z,3.06
2017-05-21T12:46:36.309Z,4.68
2017-05-21T12:49:05.226Z,3.46
2017-05-21T12:51:34.118Z,3.10
2017-05-21T12:54:03.009Z,3.44
2017-05-21T12:56:31.933Z,3.36
2017-05-21T12:59:00.812Z,4.92
2017-05-21T13:01:29.697Z,3.70
2017-05-21T13:03:58.620Z,3.52
2017-05-21T13:06:27.513Z,3.62
2017-05-21T13:08:56.396Z,3.68
2017-05-21T13:11:25.325Z,3.72
2017-05-21T13:13:54.210Z,3.96
2017-05-21T13:16:23.094Z,4.00
2017-05-21T13:18:52.008Z,3.42
2017-05-21T13:21:20.890Z,3.80
2017-05-21T13:23:49.769Z,3.48
2017-05-21T13:26:18.694Z,4.00
2017-05-21T13:28:47.581Z,3.64
2017-05-21T13:31:16.467Z,4.34
2017-05-21T13:33:45.387Z,3.80
2017-05-21T13:36:14.273Z,3.50
2017-05-21T13:38:43.157Z,4.26
2017-05-21T13:41:12.084Z,4.10
2017-05-21T13:43:40.969Z,3.36
2017-05-21T13:46:09.852Z,4.14
2017-05-21T13:48:38.775Z,3.98
2017-05-21T13:51:07.658Z,3.90
2017-05-21T13:53:36.537Z,4.08
2017-05-21T13:56:05.457Z,4.88
2017-05-21T13:58:34.341Z,4.14
2017-05-21T14:01:02.470Z,4.28
2017-05-21T14:03:31.389Z,4.38
2017-05-21T14:06:00.276Z,3.60
2017-05-21T14:08:29.152Z,4.60
2017-05-21T14:10:58.097Z,4.42
2017-05-21T14:13:26.985Z,4.40
2017-05-21T14:15:55.869Z,4.64
2017-05-21T14:18:24.789Z,4.18
2017-05-21T14:20:53.676Z,4.34
2017-05-21T14:23:22.561Z,4.06
2017-05-21T14:25:51.678Z,3.92
2017-05-21T14:28:20.556Z,4.68
2017-05-21T14:30:49.454Z,4.38
2017-05-21T14:33:18.493Z,4.42
2017-05-21T14:35:47.449Z,3.68
2017-05-21T14:38:16.346Z,4.18
2017-05-21T14:40:45.376Z,3.88
2017-05-21T14:43:14.299Z,5.80
2017-05-21T14:45:43.185Z,4.36
2017-05-21T14:48:12.111Z,4.68
2017-05-21T14:50:40.993Z,4.34
2017-05-21T14:53:09.878Z,4.96
2017-05-21T14:55:38.807Z,4.90
2017-05-21T14:58:07.695Z,4.50
2017-05-21T15:00:36.576Z,4.08
2017-05-21T15:03:05.496Z,4.44
2017-05-21T15:05:34.386Z,4.86
2017-05-21T15:08:03.274Z,4.04
2017-05-21T15:10:32.197Z,4.74
2017-05-21T15:13:01.086Z,3.90
2017-05-21T15:15:29.974Z,4.96
2017-05-21T15:17:58.898Z,3.88
2017-05-21T15:20:27.786Z,4.20
2017-05-21T15:22:56.960Z,4.50
2017-05-21T15:25:25.876Z,4.52
2017-05-21T15:27:54.766Z,4.66
2017-05-21T15:30:23.654Z,4.90
2017-05-21T15:32:52.575Z,4.64
2017-05-21T15:35:21.458Z,4.80
2017-05-21T15:37:50.347Z,4.80
2017-05-21T15:40:19.287Z,4.70
2017-05-21T15:42:48.176Z,5.12
2017-05-21T15:45:17.078Z,4.18
2017-05-21T15:47:46.092Z,5.42
2017-05-21T15:50:14.973Z,5.26
2017-05-21T15:52:43.855Z,5.54
2017-05-21T15:55:12.772Z,4.84
2017-05-21T15:57:41.661Z,5.96
2017-05-21T16:00:10.548Z,5.54
2017-05-21T16:02:39.466Z,5.04
2017-05-21T16:05:08.345Z,5.18
2017-05-21T16:07:37.236Z,4.96
2017-05-21T16:10:06.182Z,5.32
2017-05-21T16:12:35.089Z,4.94
2017-05-21T16:15:03.976Z,4.64
2017-05-21T16:17:32.901Z,4.44
2017-05-21T16:20:01.788Z,6.08
2017-05-21T16:22:30.677Z,5.18
2017-05-21T16:24:59.606Z,5.16
2017-05-21T16:27:28.494Z,4.80
2017-05-21T16:29:57.380Z,5.34
2017-05-21T16:32:26.309Z,5.62
2017-05-21T16:34:55.196Z,4.80
2017-05-21T16:37:24.104Z,6.28
2017-05-21T16:39:53.283Z,6.00
2017-05-21T16:42:22.155Z,5.40
2017-05-21T16:44:51.041Z,4.92
2017-05-21T16:47:19.965Z,10.50
2017-05-21T16:49:48.853Z,5.54
2017-05-21T16:52:17.736Z,5.36
2017-05-21T16:54:46.666Z,5.20
2017-05-21T16:57:15.552Z,5.68
2017-05-21T16:59:44.433Z,4.96
2017-05-21T17:02:13.358Z,5.42
2017-05-21T17:04:42.245Z,10.08
2017-05-21T17:07:11.130Z,5.78
2017-05-21T17:09:40.045Z,5.08
2017-05-21T17:12:08.933Z,5.92
2017-05-21T17:14:37.843Z,5.98
2017-05-21T17:17:05.993Z,5.64
2017-05-21T17:19:34.882Z,5.08
2017-05-21T17:22:03.781Z,7.44
2017-05-21T17:24:32.708Z,4.94
2017-05-21T17:27:01.590Z,6.30
2017-05-21T17:29:30.476Z,5.54
2017-05-21T17:31:59.396Z,5.92
2017-05-21T17:34:28.286Z,5.10
2017-05-21T17:36:57.168Z,5.36
2017-05-21T17:39:26.090Z,6.50
2017-05-21T17:41:54.977Z,5.36
2017-05-21T17:44:23.865Z,6.42
2017-05-21T17:46:52.793Z,6.58
2017-05-21T17:49:21.685Z,6.40
2017-05-21T17:51:50.568Z,5.98
2017-05-21T17:54:19.489Z,7.28
2017-05-21T17:56:48.372Z,7.56
2017-05-21T17:59:17.307Z,6.06
2017-05-21T18:01:46.246Z,6.74
2017-05-21T18:04:15.256Z,5.42
2017-05-21T18:06:44.158Z,5.32
2017-05-21T18:09:13.286Z,6.84
2017-05-21T18:11:42.170Z,5.82
2017-05-21T18:14:11.357Z,5.46
2017-05-21T18:16:40.239Z,7.84
2017-05-21T18:19:09.142Z,6.32
2017-05-21T18:21:38.170Z,6.74
2017-05-21T18:24:07.088Z,6.30
2017-05-21T18:26:35.981Z,6.30
2017-05-21T18:29:04.998Z,5.98
2017-05-21T18:31:33.885Z,6.20
2017-05-21T18:34:02.761Z,6.70
2017-05-21T18:36:32.404Z,5.64
2017-05-21T18:39:01.287Z,6.24
2017-05-21T18:41:30.179Z,5.42
2017-05-21T18:43:59.092Z,6.20
2017-05-21T18:46:27.978Z,7.42
2017-05-21T18:48:56.873Z,14.12
2017-05-21T18:51:25.804Z,6.84
2017-05-21T18:53:54.696Z,8.30
2017-05-21T18:56:23.586Z,6.76
2017-05-21T18:58:52.504Z,7.04
2017-05-21T19:01:21.388Z,8.18
2017-05-21T19:03:50.284Z,5.86
2017-05-21T19:06:19.402Z,6.08
2017-05-21T19:08:48.301Z,6.42
2017-05-21T19:11:17.190Z,7.92
2017-05-21T19:13:46.198Z,7.06
2017-05-21T19:16:15.176Z,7.32
2017-05-21T19:18:44.102Z,4.98
2017-05-21T19:21:13.125Z,6.04
2017-05-21T19:23:42.840Z,6.34
2017-05-21T19:26:11.729Z,8.32
2017-05-21T19:28:40.657Z,6.46
2017-05-21T19:31:09.543Z,6.34
2017-05-21T19:33:38.433Z,6.58
2017-05-21T19:36:07.366Z,6.62
2017-05-21T19:38:36.240Z,8.72
2017-05-21T19:41:05.124Z,6.36
2017-05-21T19:43:34.053Z,5.50
2017-05-21T19:46:02.942Z,6.66
2017-05-21T19:48:31.829Z,6.74
2017-05-21T19:51:01.079Z,6.46
2017-05-21T19:53:29.966Z,6.58
2017-05-21T19:55:58.854Z,6.38
2017-05-21T19:58:27.786Z,6.00
2017-05-21T20:00:56.668Z,7.24
2017-05-21T20:03:25.552Z,6.12
2017-05-21T20:05:54.479Z,6.16
2017-05-21T20:08:23.374Z,5.74
2017-05-21T20:10:53.159Z,7.52
2017-05-21T20:13:22.116Z,6.96
2017-05-21T20:15:51.028Z,8.42
2017-05-21T20:18:19.927Z,8.54
2017-05-21T20:20:48.951Z,9.76
2017-05-21T20:23:17.830Z,8.98
2017-05-21T20:25:46.754Z,9.78
2017-05-21T20:28:15.678Z,8.32
2017-05-21T20:30:44.641Z,9.18
2017-05-21T20:33:13.577Z,8.04
2017-05-21T20:35:42.464Z,9.02
2017-05-21T20:38:11.400Z,7.42
2017-05-21T20:40:40.282Z,9.02
2017-05-21T20:43:09.169Z,10.44
2017-05-21T20:45:38.109Z,11.54
2017-05-21T20:48:07.000Z,8.94
2017-05-21T20:50:35.892Z,8.82
2017-05-21T20:53:04.825Z,8.16
2017-05-21T20:55:33.713Z,9.26
2017-05-21T20:58:02.597Z,8.06
2017-05-21T21:00:31.529Z,9.52
2017-05-21T21:03:00.420Z,8.82
2017-05-21T21:05:29.313Z,9.58
2017-05-21T21:07:58.229Z,9.14
2017-05-21T21:10:27.121Z,7.86
2017-05-21T21:12:56.009Z,9.16
2017-05-21T21:15:24.938Z,8.50
2017-05-21T21:17:53.825Z,9.20
2017-05-21T21:20:22.712Z,9.06
2017-05-21T21:22:51.624Z,10.42
2017-05-21T21:25:20.516Z,10.00
2017-05-21T21:27:49.407Z,9.08
2017-05-21T21:30:18.333Z,7.72
2017-05-21T21:32:47.213Z,8.76
2017-05-21T21:35:16.107Z,9.64
2017-05-21T21:37:45.020Z,8.46
2017-05-21T21:40:13.913Z,9.16
2017-05-21T21:42:42.793Z,8.16
2017-05-21T21:45:11.721Z,9.36
2017-05-21T21:47:40.614Z,8.16
2017-05-21T21:50:09.505Z,8.70
2017-05-21T21:52:38.422Z,9.00
2017-05-21T21:55:07.364Z,8.68
2017-05-21T21:57:36.214Z,8.22
2017-05-21T22:00:05.125Z,8.76
2017-05-21T22:02:34.009Z,8.78
2017-05-21T22:05:02.891Z,9.96
2017-05-21T22:07:31.809Z,9.02
2017-05-21T22:10:00.709Z,8.76
2017-05-21T22:12:29.599Z,8.44
2017-05-21T22:14:58.522Z,8.36
2017-05-21T22:17:27.405Z,8.46
2017-05-21T22:19:56.293Z,8.54
2017-05-21T22:22:25.214Z,8.26
2017-05-21T22:24:54.105Z,9.52
2017-05-21T22:27:22.986Z,8.38
2017-05-21T22:29:51.912Z,8.74
2017-05-21T22:32:20.800Z,9.08
2017-05-21T22:34:49.692Z,8.96
2017-05-21T22:37:18.733Z,10.96
2017-05-21T22:39:47.624Z,8.48
2017-05-21T22:42:16.511Z,8.46
2017-05-21T22:44:45.437Z,8.20
2017-05-21T22:47:14.327Z,7.98
2017-05-21T22:49:43.210Z,9.40
2017-05-21T22:52:12.126Z,9.34
2017-05-21T22:54:41.020Z,9.08
2017-05-21T22:57:09.896Z,8.56
2017-05-21T22:59:38.826Z,9.08
2017-05-21T23:02:07.717Z,9.46
2017-05-21T23:04:36.606Z,9.06
2017-05-21T23:07:05.534Z,8.68
2017-05-21T23:09:34.428Z,8.94
2017-05-21T23:12:03.308Z,8.20
2017-05-21T23:14:32.233Z,9.60
2017-05-21T23:17:01.117Z,8.62
2017-05-21T23:19:30.018Z,10.64
2017-05-21T23:21:59.232Z,9.72
2017-05-21T23:24:28.120Z,8.30
2017-05-21T23:26:57.015Z,9.62
2017-05-21T23:29:25.934Z,9.32
2017-05-21T23:31:54.825Z,8.52
2017-05-21T23:34:23.711Z,8.56
2017-05-21T23:36:52.625Z,8.24
2017-05-21T23:39:21.514Z,9.66
2017-05-21T23:41:50.397Z,9.24
2017-05-21T23:44:19.321Z,8.80
2017-05-21T23:46:48.216Z,8.98
2017-05-21T23:49:17.107Z,9.44
2017-05-21T23:51:46.034Z,9.86
2017-05-21T23:54:14.921Z,9.64
2017-05-21T23:56:43.817Z,10.58
2017-05-21T23:59:12.740Z,9.14
